sensor_id;sensor_type;location;lat;lon;timestamp;P1;P2;P0
49343;PMS5003;35210;41.606;-87.602;2022-07-22T00:00:33;14.80;14.00;8.00
49343;PMS5003;35210;41.606;-87.602;2022-07-22T00:03:01;16.00;14.20;11.00
49343;PMS5003;35210;41.606;-87.602;2022-07-22T00:05:30;13.20;13.20;9.00
49343;PMS5003;35210;41.606;-87.602;2022-07-22T00:07:58;14.40;14.40;9.00
49343;PMS5003;35210;41.606;-87.602;2022-07-22T00:10:26;12.40;11.00;8.00
49343;PMS5003;35210;41.606;-87.602;2022-07-22T00:12:54;15.20;11.80;8.20
49343;PMS5003;35210;41.606;-87.602;2022-07-22T00:15:22;13.40;11.00;8.00
49343;PMS5003;35210;41.606;-87.602;2022-07-22T00:17:51;13.40;11.80;8.80
49343;PMS5003;35210;41.606;-87.602;2022-07-22T00:20:20;14.60;13.20;8.40
49343;PMS5003;35210;41.606;-87.602;2022-07-22T00:22:48;14.00;12.60;8.40
49343;PMS5003;35210;41.606;-87.602;2022-07-22T00:25:17;12.20;12.20;8.20
49343;PMS5003;35210;41.606;-87.602;2022-07-22T00:27:45;12.40;12.40;9.00
49343;PMS5003;35210;41.606;-87.602;2022-07-22T00:30:13;11.60;11.60;8.00
49343;PMS5003;35210;41.606;-87.602;2022-07-22T00:32:41;14.20;14.20;10.00
49343;PMS5003;35210;41.606;-87.602;2022-07-22T00:35:10;13.40;13.40;10.00
49343;PMS5003;35210;41.606;-87.602;2022-07-22T00:37:39;14.80;13.60;8.40
49343;PMS5003;35210;41.606;-87.602;2022-07-22T00:40:08;14.40;13.40;10.00
49343;PMS5003;35210;41.606;-87.602;2022-07-22T00:42:36;12.80;12.40;8.00
49343;PMS5003;35210;41.606;-87.602;2022-07-22T00:45:05;13.60;13.60;8.40
49343;PMS5003;35210;41.606;-87.602;2022-07-22T00:47:35;14.40;14.40;8.80
49343;PMS5003;35210;41.606;-87.602;2022-07-22T00:50:04;16.60;16.20;11.00
49343;PMS5003;35210;41.606;-87.602;2022-07-22T00:52:34;16.80;15.40;9.20
49343;PMS5003;35210;41.606;-87.602;2022-07-22T00:55:03;13.20;13.20;9.20
49343;PMS5003;35210;41.606;-87.602;2022-07-22T00:57:41;16.60;13.20;9.20
49343;PMS5003;35210;41.606;-87.602;2022-07-22T01:00:34;15.00;13.00;9.20
49343;PMS5003;35210;41.606;-87.602;2022-07-22T01:03:02;15.00;14.80;10.00
49343;PMS5003;35210;41.606;-87.602;2022-07-22T01:05:30;14.80;13.20;9.20
49343;PMS5003;35210;41.606;-87.602;2022-07-22T01:08:01;17.60;13.80;10.60
49343;PMS5003;35210;41.606;-87.602;2022-07-22T01:10:33;16.80;14.80;10.20
49343;PMS5003;35210;41.606;-87.602;2022-07-22T01:13:01;16.00;14.00;8.80
49343;PMS5003;35210;41.606;-87.602;2022-07-22T01:15:29;15.00;13.60;9.20
49343;PMS5003;35210;41.606;-87.602;2022-07-22T01:17:59;16.40;16.00;10.60
49343;PMS5003;35210;41.606;-87.602;2022-07-22T01:20:29;14.60;14.60;11.20
49343;PMS5003;35210;41.606;-87.602;2022-07-22T01:22:57;14.00;14.00;9.00
49343;PMS5003;35210;41.606;-87.602;2022-07-22T01:25:26;15.20;15.00;10.20
49343;PMS5003;35210;41.606;-87.602;2022-07-22T01:27:54;19.20;16.00;11.00
49343;PMS5003;35210;41.606;-87.602;2022-07-22T01:30:22;15.60;15.40;11.00
49343;PMS5003;35210;41.606;-87.602;2022-07-22T01:32:50;16.40;16.20;10.60
49343;PMS5003;35210;41.606;-87.602;2022-07-22T01:35:18;15.40;15.40;11.80
49343;PMS5003;35210;41.606;-87.602;2022-07-22T01:37:48;14.60;12.40;10.40
49343;PMS5003;35210;41.606;-87.602;2022-07-22T01:40:16;19.00;17.80;11.00
49343;PMS5003;35210;41.606;-87.602;2022-07-22T01:42:44;18.40;15.80;11.00
49343;PMS5003;35210;41.606;-87.602;2022-07-22T01:45:12;14.20;13.40;10.60
49343;PMS5003;35210;41.606;-87.602;2022-07-22T01:47:50;16.60;16.40;10.80
49343;PMS5003;35210;41.606;-87.602;2022-07-22T01:50:18;21.20;15.40;11.00
49343;PMS5003;35210;41.606;-87.602;2022-07-22T01:52:48;13.60;13.60;9.20
49343;PMS5003;35210;41.606;-87.602;2022-07-22T01:55:16;17.80;16.00;9.00
49343;PMS5003;35210;41.606;-87.602;2022-07-22T01:57:44;14.80;14.80;10.80
49343;PMS5003;35210;41.606;-87.602;2022-07-22T02:00:12;16.60;14.20;10.20
49343;PMS5003;35210;41.606;-87.602;2022-07-22T02:02:41;17.20;17.00;11.00
49343;PMS5003;35210;41.606;-87.602;2022-07-22T02:05:09;17.60;17.60;11.20
49343;PMS5003;35210;41.606;-87.602;2022-07-22T02:07:42;16.20;14.80;10.20
49343;PMS5003;35210;41.606;-87.602;2022-07-22T02:10:25;20.20;15.80;9.20
49343;PMS5003;35210;41.606;-87.602;2022-07-22T02:12:53;18.40;15.60;10.40
49343;PMS5003;35210;41.606;-87.602;2022-07-22T02:15:21;21.20;17.00;11.80
49343;PMS5003;35210;41.606;-87.602;2022-07-22T02:17:50;19.80;18.00;10.00
49343;PMS5003;35210;41.606;-87.602;2022-07-22T02:20:18;18.40;18.00;12.40
49343;PMS5003;35210;41.606;-87.602;2022-07-22T02:22:48;18.80;16.80;11.00
49343;PMS5003;35210;41.606;-87.602;2022-07-22T02:25:26;17.20;15.20;11.20
49343;PMS5003;35210;41.606;-87.602;2022-07-22T02:27:59;16.80;16.20;11.00
49343;PMS5003;35210;41.606;-87.602;2022-07-22T02:30:29;18.80;16.40;11.00
49343;PMS5003;35210;41.606;-87.602;2022-07-22T02:32:58;15.00;14.00;9.00
49343;PMS5003;35210;41.606;-87.602;2022-07-22T02:35:27;19.80;18.60;11.00
49343;PMS5003;35210;41.606;-87.602;2022-07-22T02:37:56;21.80;18.00;10.40
49343;PMS5003;35210;41.606;-87.602;2022-07-22T02:40:25;18.20;18.20;10.80
49343;PMS5003;35210;41.606;-87.602;2022-07-22T02:42:54;17.80;15.60;10.60
49343;PMS5003;35210;41.606;-87.602;2022-07-22T02:45:22;14.60;14.60;10.20
49343;PMS5003;35210;41.606;-87.602;2022-07-22T02:47:52;16.80;14.00;8.60
49343;PMS5003;35210;41.606;-87.602;2022-07-22T02:50:22;18.00;16.40;11.20
49343;PMS5003;35210;41.606;-87.602;2022-07-22T02:52:51;18.20;18.20;13.00
49343;PMS5003;35210;41.606;-87.602;2022-07-22T02:55:21;18.80;17.60;12.60
49343;PMS5003;35210;41.606;-87.602;2022-07-22T02:57:50;16.80;16.80;12.00
49343;PMS5003;35210;41.606;-87.602;2022-07-22T03:00:19;14.80;14.60;11.60
49343;PMS5003;35210;41.606;-87.602;2022-07-22T03:02:47;19.00;16.80;12.40
49343;PMS5003;35210;41.606;-87.602;2022-07-22T03:05:16;19.60;18.00;11.20
49343;PMS5003;35210;41.606;-87.602;2022-07-22T03:07:44;13.20;13.20;11.00
49343;PMS5003;35210;41.606;-87.602;2022-07-22T03:10:14;16.00;14.60;10.60
49343;PMS5003;35210;41.606;-87.602;2022-07-22T03:12:44;20.20;18.20;12.00
49343;PMS5003;35210;41.606;-87.602;2022-07-22T03:15:13;15.20;13.00;10.00
49343;PMS5003;35210;41.606;-87.602;2022-07-22T03:17:42;13.60;13.60;9.80
49343;PMS5003;35210;41.606;-87.602;2022-07-22T03:20:11;19.40;17.00;11.20
49343;PMS5003;35210;41.606;-87.602;2022-07-22T03:22:42;15.60;15.60;11.00
49343;PMS5003;35210;41.606;-87.602;2022-07-22T03:25:11;18.20;15.40;11.20
49343;PMS5003;35210;41.606;-87.602;2022-07-22T03:27:41;15.80;14.80;11.60
49343;PMS5003;35210;41.606;-87.602;2022-07-22T03:30:17;21.60;16.40;10.80
49343;PMS5003;35210;41.606;-87.602;2022-07-22T03:32:45;18.60;17.00;11.80
49343;PMS5003;35210;41.606;-87.602;2022-07-22T03:35:15;18.00;16.60;11.00
49343;PMS5003;35210;41.606;-87.602;2022-07-22T03:37:43;16.60;16.20;10.00
49343;PMS5003;35210;41.606;-87.602;2022-07-22T03:40:14;17.60;17.00;11.20
49343;PMS5003;35210;41.606;-87.602;2022-07-22T03:42:58;18.40;16.80;12.40
49343;PMS5003;35210;41.606;-87.602;2022-07-22T03:45:27;16.20;15.00;11.00
49343;PMS5003;35210;41.606;-87.602;2022-07-22T03:47:55;21.20;18.20;12.80
49343;PMS5003;35210;41.606;-87.602;2022-07-22T03:50:23;18.00;17.60;12.80
49343;PMS5003;35210;41.606;-87.602;2022-07-22T03:52:52;16.20;16.20;12.20
49343;PMS5003;35210;41.606;-87.602;2022-07-22T03:55:20;17.60;16.40;10.40
49343;PMS5003;35210;41.606;-87.602;2022-07-22T03:57:48;19.60;15.60;11.00
49343;PMS5003;35210;41.606;-87.602;2022-07-22T04:00:16;16.80;15.00;12.20
49343;PMS5003;35210;41.606;-87.602;2022-07-22T04:02:46;14.00;14.00;8.60
49343;PMS5003;35210;41.606;-87.602;2022-07-22T04:05:14;15.00;15.00;12.00
49343;PMS5003;35210;41.606;-87.602;2022-07-22T04:07:43;20.80;17.40;11.60
49343;PMS5003;35210;41.606;-87.602;2022-07-22T04:10:11;16.80;15.00;10.40
49343;PMS5003;35210;41.606;-87.602;2022-07-22T04:12:39;13.40;13.40;11.00
49343;PMS5003;35210;41.606;-87.602;2022-07-22T04:15:09;16.60;15.20;11.00
49343;PMS5003;35210;41.606;-87.602;2022-07-22T04:17:37;15.80;15.40;11.80
49343;PMS5003;35210;41.606;-87.602;2022-07-22T04:20:07;15.80;13.60;11.00
49343;PMS5003;35210;41.606;-87.602;2022-07-22T04:22:37;20.60;17.80;12.60
49343;PMS5003;35210;41.606;-87.602;2022-07-22T04:25:05;19.20;18.80;13.00
49343;PMS5003;35210;41.606;-87.602;2022-07-22T04:27:35;13.60;10.80;6.20
49343;PMS5003;35210;41.606;-87.602;2022-07-22T04:30:04;19.00;15.00;10.40
49343;PMS5003;35210;41.606;-87.602;2022-07-22T04:32:33;22.20;18.60;12.80
49343;PMS5003;35210;41.606;-87.602;2022-07-22T04:35:01;16.40;16.40;10.80
49343;PMS5003;35210;41.606;-87.602;2022-07-22T04:37:31;16.40;15.60;10.60
49343;PMS5003;35210;41.606;-87.602;2022-07-22T04:40:00;13.80;13.40;9.80
49343;PMS5003;35210;41.606;-87.602;2022-07-22T04:42:29;20.40;16.00;12.20
49343;PMS5003;35210;41.606;-87.602;2022-07-22T04:44:57;14.80;13.80;10.20
49343;PMS5003;35210;41.606;-87.602;2022-07-22T04:47:26;16.60;13.20;9.80
49343;PMS5003;35210;41.606;-87.602;2022-07-22T04:49:55;14.00;14.00;10.60
49343;PMS5003;35210;41.606;-87.602;2022-07-22T04:52:23;14.80;14.00;9.40
49343;PMS5003;35210;41.606;-87.602;2022-07-22T04:54:53;16.20;14.40;9.60
49343;PMS5003;35210;41.606;-87.602;2022-07-22T04:57:24;16.60;14.40;9.40
49343;PMS5003;35210;41.606;-87.602;2022-07-22T04:59:53;15.40;14.40;9.40
49343;PMS5003;35210;41.606;-87.602;2022-07-22T05:02:21;12.40;12.00;8.20
49343;PMS5003;35210;41.606;-87.602;2022-07-22T05:04:49;11.20;11.20;7.60
49343;PMS5003;35210;41.606;-87.602;2022-07-22T05:07:17;12.40;11.20;8.00
49343;PMS5003;35210;41.606;-87.602;2022-07-22T05:09:46;15.40;14.00;9.60
49343;PMS5003;35210;41.606;-87.602;2022-07-22T05:12:15;13.20;13.00;9.00
49343;PMS5003;35210;41.606;-87.602;2022-07-22T05:14:44;12.20;9.60;6.40
49343;PMS5003;35210;41.606;-87.602;2022-07-22T05:17:12;11.80;10.20;7.00
49343;PMS5003;35210;41.606;-87.602;2022-07-22T05:19:40;13.60;13.60;9.20
49343;PMS5003;35210;41.606;-87.602;2022-07-22T05:22:08;10.80;10.40;7.80
49343;PMS5003;35210;41.606;-87.602;2022-07-22T05:24:37;10.40;10.40;8.80
49343;PMS5003;35210;41.606;-87.602;2022-07-22T05:27:05;11.60;11.60;9.00
49343;PMS5003;35210;41.606;-87.602;2022-07-22T05:29:36;11.80;11.40;7.00
49343;PMS5003;35210;41.606;-87.602;2022-07-22T05:32:04;17.80;14.00;8.60
49343;PMS5003;35210;41.606;-87.602;2022-07-22T05:34:32;10.20;10.00;7.00
49343;PMS5003;35210;41.606;-87.602;2022-07-22T05:37:00;13.40;12.40;8.80
49343;PMS5003;35210;41.606;-87.602;2022-07-22T05:39:28;11.80;11.80;7.60
49343;PMS5003;35210;41.606;-87.602;2022-07-22T05:41:56;12.40;10.80;8.20
49343;PMS5003;35210;41.606;-87.602;2022-07-22T05:44:25;14.00;10.60;8.00
49343;PMS5003;35210;41.606;-87.602;2022-07-22T05:46:54;14.20;13.00;8.60
49343;PMS5003;35210;41.606;-87.602;2022-07-22T05:49:22;13.80;12.20;8.80
49343;PMS5003;35210;41.606;-87.602;2022-07-22T05:51:52;10.40;10.40;7.00
49343;PMS5003;35210;41.606;-87.602;2022-07-22T05:54:23;10.80;10.20;8.00
49343;PMS5003;35210;41.606;-87.602;2022-07-22T05:56:51;9.80;9.80;6.00
49343;PMS5003;35210;41.606;-87.602;2022-07-22T05:59:19;11.20;11.00;7.00
49343;PMS5003;35210;41.606;-87.602;2022-07-22T06:01:47;10.80;10.40;7.20
49343;PMS5003;35210;41.606;-87.602;2022-07-22T06:04:17;7.20;7.20;5.20
49343;PMS5003;35210;41.606;-87.602;2022-07-22T06:06:48;8.40;8.40;6.00
49343;PMS5003;35210;41.606;-87.602;2022-07-22T06:09:23;9.00;7.00;6.00
49343;PMS5003;35210;41.606;-87.602;2022-07-22T06:11:51;9.60;9.20;4.80
49343;PMS5003;35210;41.606;-87.602;2022-07-22T06:14:19;8.80;8.80;6.00
49343;PMS5003;35210;41.606;-87.602;2022-07-22T06:16:52;8.60;8.60;5.60
49343;PMS5003;35210;41.606;-87.602;2022-07-22T06:19:24;7.20;7.20;5.60
49343;PMS5003;35210;41.606;-87.602;2022-07-22T06:21:54;8.60;8.40;5.00
49343;PMS5003;35210;41.606;-87.602;2022-07-22T06:24:22;10.40;10.40;6.00
49343;PMS5003;35210;41.606;-87.602;2022-07-22T06:26:50;7.40;7.40;6.00
49343;PMS5003;35210;41.606;-87.602;2022-07-22T06:29:21;10.00;9.00;6.00
49343;PMS5003;35210;41.606;-87.602;2022-07-22T06:31:49;10.80;9.40;6.60
49343;PMS5003;35210;41.606;-87.602;2022-07-22T06:34:17;9.00;8.00;6.00
49343;PMS5003;35210;41.606;-87.602;2022-07-22T06:36:51;9.40;7.80;6.20
49343;PMS5003;35210;41.606;-87.602;2022-07-22T06:39:19;8.60;8.60;5.40
49343;PMS5003;35210;41.606;-87.602;2022-07-22T06:41:47;8.20;7.60;6.20
49343;PMS5003;35210;41.606;-87.602;2022-07-22T06:44:15;8.80;8.80;6.40
49343;PMS5003;35210;41.606;-87.602;2022-07-22T06:46:44;7.80;7.80;5.60
49343;PMS5003;35210;41.606;-87.602;2022-07-22T06:49:12;5.80;5.00;4.00
49343;PMS5003;35210;41.606;-87.602;2022-07-22T06:51:40;6.40;6.40;4.80
49343;PMS5003;35210;41.606;-87.602;2022-07-22T06:54:09;6.00;6.00;4.80
49343;PMS5003;35210;41.606;-87.602;2022-07-22T06:56:37;7.00;7.00;5.00
49343;PMS5003;35210;41.606;-87.602;2022-07-22T06:59:05;8.40;8.00;6.00
49343;PMS5003;35210;41.606;-87.602;2022-07-22T07:01:33;8.20;7.60;5.80
49343;PMS5003;35210;41.606;-87.602;2022-07-22T07:04:01;9.60;7.20;5.00
49343;PMS5003;35210;41.606;-87.602;2022-07-22T07:06:29;8.60;8.00;5.60
49343;PMS5003;35210;41.606;-87.602;2022-07-22T07:08:58;9.40;7.40;5.20
49343;PMS5003;35210;41.606;-87.602;2022-07-22T07:11:28;9.20;9.20;6.20
49343;PMS5003;35210;41.606;-87.602;2022-07-22T07:13:56;7.00;7.00;5.80
49343;PMS5003;35210;41.606;-87.602;2022-07-22T07:16:24;7.00;7.00;5.80
49343;PMS5003;35210;41.606;-87.602;2022-07-22T07:18:53;8.80;8.80;6.00
49343;PMS5003;35210;41.606;-87.602;2022-07-22T07:21:21;8.20;7.00;5.20
49343;PMS5003;35210;41.606;-87.602;2022-07-22T07:23:49;9.00;8.20;5.80
49343;PMS5003;35210;41.606;-87.602;2022-07-22T07:26:17;6.20;6.20;4.60
49343;PMS5003;35210;41.606;-87.602;2022-07-22T07:28:47;7.80;6.20;4.40
49343;PMS5003;35210;41.606;-87.602;2022-07-22T07:31:16;8.80;7.20;6.00
49343;PMS5003;35210;41.606;-87.602;2022-07-22T07:33:45;6.80;6.80;5.80
49343;PMS5003;35210;41.606;-87.602;2022-07-22T07:36:22;7.60;7.60;4.80
49343;PMS5003;35210;41.606;-87.602;2022-07-22T07:38:50;7.80;6.80;5.00
49343;PMS5003;35210;41.606;-87.602;2022-07-22T07:41:19;5.40;5.40;4.40
49343;PMS5003;35210;41.606;-87.602;2022-07-22T07:43:49;8.40;7.40;6.00
49343;PMS5003;35210;41.606;-87.602;2022-07-22T07:46:17;6.20;6.20;4.20
49343;PMS5003;35210;41.606;-87.602;2022-07-22T07:48:54;9.60;6.40;5.00
49343;PMS5003;35210;41.606;-87.602;2022-07-22T07:51:34;7.40;6.60;5.00
49343;PMS5003;35210;41.606;-87.602;2022-07-22T07:54:03;8.20;7.20;5.20
49343;PMS5003;35210;41.606;-87.602;2022-07-22T07:56:31;7.20;6.60;4.40
49343;PMS5003;35210;41.606;-87.602;2022-07-22T07:59:01;7.00;7.00;5.40
49343;PMS5003;35210;41.606;-87.602;2022-07-22T08:01:29;5.20;3.00;2.20
49343;PMS5003;35210;41.606;-87.602;2022-07-22T08:03:57;9.20;7.40;5.00
49343;PMS5003;35210;41.606;-87.602;2022-07-22T08:06:26;6.40;6.40;4.80
49343;PMS5003;35210;41.606;-87.602;2022-07-22T08:08:54;7.00;7.00;5.20
49343;PMS5003;35210;41.606;-87.602;2022-07-22T08:11:22;7.80;7.00;5.00
49343;PMS5003;35210;41.606;-87.602;2022-07-22T08:13:50;9.40;6.80;5.00
49343;PMS5003;35210;41.606;-87.602;2022-07-22T08:16:19;6.60;6.60;4.40
49343;PMS5003;35210;41.606;-87.602;2022-07-22T08:18:48;7.40;6.20;4.40
49343;PMS5003;35210;41.606;-87.602;2022-07-22T08:21:16;7.00;7.00;6.00
49343;PMS5003;35210;41.606;-87.602;2022-07-22T08:23:45;6.00;6.00;5.00
49343;PMS5003;35210;41.606;-87.602;2022-07-22T08:26:13;5.00;5.00;2.80
49343;PMS5003;35210;41.606;-87.602;2022-07-22T08:28:42;7.60;6.40;4.00
49343;PMS5003;35210;41.606;-87.602;2022-07-22T08:31:11;7.40;7.40;5.00
49343;PMS5003;35210;41.606;-87.602;2022-07-22T08:33:40;7.60;7.60;5.80
49343;PMS5003;35210;41.606;-87.602;2022-07-22T08:36:08;6.60;5.60;4.00
49343;PMS5003;35210;41.606;-87.602;2022-07-22T08:38:36;6.40;5.60;4.00
49343;PMS5003;35210;41.606;-87.602;2022-07-22T08:41:04;9.00;8.00;4.20
49343;PMS5003;35210;41.606;-87.602;2022-07-22T08:43:34;6.60;6.60;4.00
49343;PMS5003;35210;41.606;-87.602;2022-07-22T08:46:07;7.40;7.40;4.80
49343;PMS5003;35210;41.606;-87.602;2022-07-22T08:48:36;6.60;6.60;5.00
49343;PMS5003;35210;41.606;-87.602;2022-07-22T08:51:06;6.40;5.60;4.20
49343;PMS5003;35210;41.606;-87.602;2022-07-22T08:53:34;5.20;5.20;4.00
49343;PMS5003;35210;41.606;-87.602;2022-07-22T08:56:02;7.20;7.20;5.00
49343;PMS5003;35210;41.606;-87.602;2022-07-22T08:58:30;7.60;7.00;5.00
49343;PMS5003;35210;41.606;-87.602;2022-07-22T09:01:05;7.80;7.80;4.60
49343;PMS5003;35210;41.606;-87.602;2022-07-22T09:03:43;7.40;7.40;5.20
49343;PMS5003;35210;41.606;-87.602;2022-07-22T09:06:15;7.00;7.00;5.00
49343;PMS5003;35210;41.606;-87.602;2022-07-22T09:08:51;8.60;7.20;5.00
49343;PMS5003;35210;41.606;-87.602;2022-07-22T09:11:23;7.00;7.00;5.00
49343;PMS5003;35210;41.606;-87.602;2022-07-22T09:13:53;6.80;6.80;4.80
49343;PMS5003;35210;41.606;-87.602;2022-07-22T09:16:38;5.60;5.60;4.40
49343;PMS5003;35210;41.606;-87.602;2022-07-22T09:19:07;7.20;5.40;3.40
49343;PMS5003;35210;41.606;-87.602;2022-07-22T09:21:39;7.20;7.20;5.00
49343;PMS5003;35210;41.606;-87.602;2022-07-22T09:24:09;7.20;7.20;5.00
49343;PMS5003;35210;41.606;-87.602;2022-07-22T09:26:54;7.00;7.00;5.40
49343;PMS5003;35210;41.606;-87.602;2022-07-22T09:29:31;7.80;7.80;5.00
49343;PMS5003;35210;41.606;-87.602;2022-07-22T09:32:03;5.60;4.40;3.60
49343;PMS5003;35210;41.606;-87.602;2022-07-22T09:34:37;8.40;8.20;5.00
49343;PMS5003;35210;41.606;-87.602;2022-07-22T09:37:07;6.60;6.60;4.00
49343;PMS5003;35210;41.606;-87.602;2022-07-22T09:39:35;6.80;5.80;4.40
49343;PMS5003;35210;41.606;-87.602;2022-07-22T09:42:04;8.80;7.00;3.20
49343;PMS5003;35210;41.606;-87.602;2022-07-22T09:44:33;7.00;7.00;5.00
49343;PMS5003;35210;41.606;-87.602;2022-07-22T09:47:01;10.00;8.20;5.00
49343;PMS5003;35210;41.606;-87.602;2022-07-22T09:49:33;7.00;7.00;5.00
49343;PMS5003;35210;41.606;-87.602;2022-07-22T09:52:07;6.20;6.20;4.40
49343;PMS5003;35210;41.606;-87.602;2022-07-22T09:54:35;8.00;8.00;5.00
49343;PMS5003;35210;41.606;-87.602;2022-07-22T09:57:04;7.40;7.00;4.80
49343;PMS5003;35210;41.606;-87.602;2022-07-22T09:59:33;7.40;7.40;5.00
49343;PMS5003;35210;41.606;-87.602;2022-07-22T10:02:01;7.60;6.80;5.00
49343;PMS5003;35210;41.606;-87.602;2022-07-22T10:04:32;7.60;7.60;5.00
49343;PMS5003;35210;41.606;-87.602;2022-07-22T10:07:03;7.00;7.00;5.00
49343;PMS5003;35210;41.606;-87.602;2022-07-22T10:09:33;7.20;6.40;5.20
49343;PMS5003;35210;41.606;-87.602;2022-07-22T10:12:03;5.00;4.60;2.60
49343;PMS5003;35210;41.606;-87.602;2022-07-22T10:14:33;8.00;7.20;5.60
49343;PMS5003;35210;41.606;-87.602;2022-07-22T10:17:02;9.20;6.20;4.00
49343;PMS5003;35210;41.606;-87.602;2022-07-22T10:19:31;8.00;7.00;5.00
49343;PMS5003;35210;41.606;-87.602;2022-07-22T10:21:59;6.00;5.00;3.00
49343;PMS5003;35210;41.606;-87.602;2022-07-22T10:24:28;10.20;7.40;5.00
49343;PMS5003;35210;41.606;-87.602;2022-07-22T10:26:58;6.60;6.60;5.00
49343;PMS5003;35210;41.606;-87.602;2022-07-22T10:29:28;8.00;8.00;5.00
49343;PMS5003;35210;41.606;-87.602;2022-07-22T10:37:52;7.20;6.00;4.80
49343;PMS5003;35210;41.606;-87.602;2022-07-22T10:40:23;6.00;6.00;5.00
49343;PMS5003;35210;41.606;-87.602;2022-07-22T10:43:12;7.60;7.60;5.00
49343;PMS5003;35210;41.606;-87.602;2022-07-22T10:45:41;7.40;7.20;5.40
49343;PMS5003;35210;41.606;-87.602;2022-07-22T10:48:13;6.40;6.40;5.40
49343;PMS5003;35210;41.606;-87.602;2022-07-22T10:50:43;8.40;7.80;5.40
49343;PMS5003;35210;41.606;-87.602;2022-07-22T10:53:15;6.80;5.80;4.20
49343;PMS5003;35210;41.606;-87.602;2022-07-22T10:58:51;10.20;9.00;7.00
49343;PMS5003;35210;41.606;-87.602;2022-07-22T11:01:23;5.40;5.40;3.20
49343;PMS5003;35210;41.606;-87.602;2022-07-22T11:03:55;10.60;7.60;6.00
49343;PMS5003;35210;41.606;-87.602;2022-07-22T11:06:34;11.80;6.80;5.20
49343;PMS5003;35210;41.606;-87.602;2022-07-22T11:09:04;7.80;7.40;5.00
49343;PMS5003;35210;41.606;-87.602;2022-07-22T11:11:40;6.80;6.80;4.80
49343;PMS5003;35210;41.606;-87.602;2022-07-22T11:14:18;8.60;7.60;5.20
49343;PMS5003;35210;41.606;-87.602;2022-07-22T11:16:50;8.00;8.00;5.00
49343;PMS5003;35210;41.606;-87.602;2022-07-22T11:19:22;7.00;7.00;5.00
49343;PMS5003;35210;41.606;-87.602;2022-07-22T11:21:52;6.20;6.20;4.20
49343;PMS5003;35210;41.606;-87.602;2022-07-22T11:24:23;9.60;7.60;5.20
49343;PMS5003;35210;41.606;-87.602;2022-07-22T11:26:53;7.80;7.20;5.00
49343;PMS5003;35210;41.606;-87.602;2022-07-22T11:29:26;8.60;7.80;6.00
49343;PMS5003;35210;41.606;-87.602;2022-07-22T11:31:55;7.20;7.20;5.60
49343;PMS5003;35210;41.606;-87.602;2022-07-22T11:34:25;5.80;5.00;4.20
49343;PMS5003;35210;41.606;-87.602;2022-07-22T11:36:54;6.00;6.00;3.00
49343;PMS5003;35210;41.606;-87.602;2022-07-22T11:39:24;7.80;7.80;6.00
49343;PMS5003;35210;41.606;-87.602;2022-07-22T11:41:54;9.00;7.80;4.40
49343;PMS5003;35210;41.606;-87.602;2022-07-22T11:44:24;8.80;8.80;6.00
49343;PMS5003;35210;41.606;-87.602;2022-07-22T11:46:54;8.00;6.00;4.20
49343;PMS5003;35210;41.606;-87.602;2022-07-22T11:49:24;7.20;6.40;4.60
49343;PMS5003;35210;41.606;-87.602;2022-07-22T11:51:53;4.00;4.00;3.00
49343;PMS5003;35210;41.606;-87.602;2022-07-22T11:54:22;6.40;6.40;4.40
49343;PMS5003;35210;41.606;-87.602;2022-07-22T11:56:50;7.00;7.00;4.40
49343;PMS5003;35210;41.606;-87.602;2022-07-22T11:59:19;7.80;7.00;5.00
49343;PMS5003;35210;41.606;-87.602;2022-07-22T12:01:49;6.00;6.00;4.20
49343;PMS5003;35210;41.606;-87.602;2022-07-22T12:04:19;8.20;6.60;4.80
49343;PMS5003;35210;41.606;-87.602;2022-07-22T12:06:49;7.60;5.80;4.00
49343;PMS5003;35210;41.606;-87.602;2022-07-22T12:09:20;6.00;5.40;3.80
49343;PMS5003;35210;41.606;-87.602;2022-07-22T12:11:50;6.00;6.00;4.00
49343;PMS5003;35210;41.606;-87.602;2022-07-22T12:14:24;6.20;6.20;5.00
49343;PMS5003;35210;41.606;-87.602;2022-07-22T12:16:56;9.60;7.80;4.00
49343;PMS5003;35210;41.606;-87.602;2022-07-22T12:19:26;3.00;3.00;2.60
49343;PMS5003;35210;41.606;-87.602;2022-07-22T12:21:56;6.20;5.00;4.00
49343;PMS5003;35210;41.606;-87.602;2022-07-22T12:24:26;7.00;6.00;4.80
49343;PMS5003;35210;41.606;-87.602;2022-07-22T12:27:00;5.60;5.60;4.00
49343;PMS5003;35210;41.606;-87.602;2022-07-22T12:29:30;8.20;7.00;4.00
49343;PMS5003;35210;41.606;-87.602;2022-07-22T12:32:11;7.80;7.00;5.00
49343;PMS5003;35210;41.606;-87.602;2022-07-22T12:34:44;5.00;3.40;2.20
49343;PMS5003;35210;41.606;-87.602;2022-07-22T12:37:16;5.60;5.60;4.80
49343;PMS5003;35210;41.606;-87.602;2022-07-22T12:39:53;8.40;6.20;3.80
49343;PMS5003;35210;41.606;-87.602;2022-07-22T12:42:22;8.20;7.40;6.00
49343;PMS5003;35210;41.606;-87.602;2022-07-22T12:44:52;7.80;6.00;4.60
49343;PMS5003;35210;41.606;-87.602;2022-07-22T12:47:45;7.20;7.20;5.00
49343;PMS5003;35210;41.606;-87.602;2022-07-22T12:50:22;6.60;5.60;3.60
49343;PMS5003;35210;41.606;-87.602;2022-07-22T12:52:53;8.20;7.20;4.80
49343;PMS5003;35210;41.606;-87.602;2022-07-22T12:55:23;6.20;5.80;4.00
49343;PMS5003;35210;41.606;-87.602;2022-07-22T12:57:51;6.00;5.80;3.40
49343;PMS5003;35210;41.606;-87.602;2022-07-22T13:00:20;4.20;4.20;2.20
49343;PMS5003;35210;41.606;-87.602;2022-07-22T13:02:51;5.00;4.40;3.80
49343;PMS5003;35210;41.606;-87.602;2022-07-22T13:05:19;5.40;4.00;3.00
49343;PMS5003;35210;41.606;-87.602;2022-07-22T13:07:48;4.20;4.20;2.60
49343;PMS5003;35210;41.606;-87.602;2022-07-22T13:10:19;4.80;4.80;3.00
49343;PMS5003;35210;41.606;-87.602;2022-07-22T13:12:47;5.20;5.20;4.00
49343;PMS5003;35210;41.606;-87.602;2022-07-22T13:15:16;5.00;5.00;3.00
49343;PMS5003;35210;41.606;-87.602;2022-07-22T13:17:44;6.20;5.00;3.80
49343;PMS5003;35210;41.606;-87.602;2022-07-22T13:20:15;5.40;5.40;3.80
49343;PMS5003;35210;41.606;-87.602;2022-07-22T13:22:43;6.00;5.00;4.00
49343;PMS5003;35210;41.606;-87.602;2022-07-22T13:25:22;6.00;6.00;4.00
49343;PMS5003;35210;41.606;-87.602;2022-07-22T13:28:06;6.00;6.00;4.00
49343;PMS5003;35210;41.606;-87.602;2022-07-22T13:30:34;8.00;6.00;5.00
49343;PMS5003;35210;41.606;-87.602;2022-07-22T13:33:03;5.20;5.20;3.20
49343;PMS5003;35210;41.606;-87.602;2022-07-22T13:35:34;5.00;4.80;4.00
49343;PMS5003;35210;41.606;-87.602;2022-07-22T13:38:02;5.00;5.00;3.00
49343;PMS5003;35210;41.606;-87.602;2022-07-22T13:40:30;5.80;5.80;4.00
49343;PMS5003;35210;41.606;-87.602;2022-07-22T13:42:58;6.40;6.00;4.00
49343;PMS5003;35210;41.606;-87.602;2022-07-22T13:45:26;4.40;4.20;2.80
49343;PMS5003;35210;41.606;-87.602;2022-07-22T13:47:55;7.20;6.80;5.00
49343;PMS5003;35210;41.606;-87.602;2022-07-22T13:50:24;5.00;5.00;2.60
49343;PMS5003;35210;41.606;-87.602;2022-07-22T13:52:55;5.60;5.00;4.00
49343;PMS5003;35210;41.606;-87.602;2022-07-22T13:55:25;5.00;3.20;2.60
49343;PMS5003;35210;41.606;-87.602;2022-07-22T13:57:53;8.80;6.00;3.00
49343;PMS5003;35210;41.606;-87.602;2022-07-22T14:00:23;6.40;4.40;2.80
49343;PMS5003;35210;41.606;-87.602;2022-07-22T14:02:52;4.00;4.00;2.00
49343;PMS5003;35210;41.606;-87.602;2022-07-22T14:05:20;5.20;3.80;2.20
49343;PMS5003;35210;41.606;-87.602;2022-07-22T14:07:48;3.00;3.00;1.60